Latest Coastal Weather Observations for Mallacoota

IDV60701

Issued at 3:51 pm EST Saturday 5 September 2015 (issued every 10 minutes, with the page automatically refreshed every 10 minutes)

About coastal observations | Map of coastal stations | Coastal observations for VIC | Marine services | Other Formats
Station Details ID: 084084 Name: MALLACOOTA Lat: -37.60 Lon: 149.73 Height: 22.0 m
Data from the previous 72 hours. | See also: Recent months at Mallacoota
Date/Time
EST
Temp

°C
Wind Pressure Rain
since 9am
mm
Weather Cloud Vis
km
Sea
Height
m
Swell
Dir
 
Speed
knots
Gust
knots
hPa Trend Height
m
Period
s
Dir
05/03:30pm 13.9 WSW 8 13 1021.5 - 0.0 - - - - - - -
05/03:00pm 14.1 WSW 10 19 1021.6 - 0.0 - - - - - - -
05/02:30pm 14.3 WSW 10 15 1021.3 - 0.0 - - - - - - -
05/02:00pm 14.5 W 10 17 1021.2 - 0.0 - - - - - - -
05/01:30pm 14.2 WSW 9 19 1021.3 - 0.0 - - - - - - -
05/01:00pm 14.8 SW 13 21 1021.5 - 0.0 - - - - - - -
05/12:30pm 14.6 WSW 10 19 1021.8 - 0.0 - - - - - - -
05/12:00pm 14.1 W 11 19 1022.2 - 0.0 - - - - - - -
05/11:30am 14.1 WSW 12 20 1022.4 - 0.0 - - - - - - -
05/11:00am 13.9 WSW 12 20 1022.6 - 0.0 - - - - - - -
05/10:30am 14.4 WSW 10 18 1022.6 - 0.0 - - - - - - -
05/10:00am 13.6 W 10 18 1022.5 - 0.0 - - - - - - -
05/09:30am 12.9 WSW 11 18 1022.8 - 0.0 - - - - - - -
05/09:00am 12.7 W 11 19 1022.7 - 0.0 - - - - - - -
05/08:30am 11.6 W 10 16 1022.7 - 0.0 - - - - - - -
05/08:00am 11.1 W 9 16 1022.2 - 0.0 - - - - - - -
05/07:30am 10.8 W 9 14 1022.1 - 0.0 - - - - - - -
05/07:00am 10.6 W 9 18 1021.7 - 0.0 - - - - - - -
05/06:30am 10.2 WNW 8 13 1021.4 - 0.0 - - - - - - -
05/06:00am 9.9 NW 8 13 1021.5 - 0.0 - - - - - - -
05/05:30am 9.9 WNW 7 13 1021.4 - 0.0 - - - - - - -
05/05:00am 9.7 W 6 10 1021.3 - 0.0 - - - - - - -
05/04:30am 9.7 WNW 5 9 1021.2 - 0.0 - - - - - - -
05/04:00am 9.8 W 5 8 1021.2 - 0.0 - - - - - - -
05/03:30am 9.8 W 6 11 1021.1 - 0.0 - - - - - - -
05/03:00am 9.7 W 6 13 1021.2 - 0.0 - - - - - - -
05/02:30am 9.6 W 8 16 1021.3 - 0.0 - - - - - - -
05/02:00am 9.4 WSW 9 15 1021.5 - 0.0 - - - - - - -
05/01:30am 9.4 WSW 9 15 1021.8 - 0.0 - - - - - - -
05/01:00am 9.4 W 7 13 1022.0 - 0.0 - - - - - - -
05/12:30am 9.5 W 7 11 1022.3 - 0.0 - - - - - - -
05/12:00am 9.7 W 7 13 1022.6 - 0.0 - - - - - - -
 
Date/Time
EST
Temp

°C
Wind Pressure Rain
since 9am
mm
Weather Cloud Vis
km
Sea
Height
m
Swell
Dir
 
Speed
knots
Gust
knots
hPa Trend Height
m
Period
s
Dir
04/11:30pm 10.1 W 7 15 1022.6 - 0.0 - - - - - - -
04/11:00pm 10.0 WNW 7 12 1022.7 - 0.0 - - - - - - -
04/10:30pm 9.9 WNW 6 9 1022.7 - 0.0 - - - - - - -
04/10:00pm 9.7 WNW 6 9 1022.7 - 0.0 - - - - - - -
04/09:30pm 9.4 WNW 6 9 1022.7 - 0.0 - - - - - - -
04/09:00pm 9.1 WNW 7 11 1022.8 - 0.0 - - - - - - -
04/08:30pm 8.6 WNW 6 9 1022.7 - 0.0 - - - - - - -
04/08:00pm 8.6 WNW 7 11 1022.6 - 0.0 - - - - - - -
04/07:30pm 7.8 WNW 5 7 1022.6 - 0.0 - - - - - - -
04/07:00pm 7.9 NW 4 5 1022.6 - 0.0 - - - - - - -
04/06:30pm 8.6 W 4 7 1022.2 - 0.0 - - - - - - -
04/06:00pm 9.1 W 4 6 1022.2 - 0.0 - - - - - - -
04/05:30pm 9.8 WSW 5 7 1021.7 - 0.0 - - - - - - -
04/05:00pm 10.8 SW 7 12 1021.5 - 0.0 - - - - - - -
04/04:30pm 11.3 SW 9 14 1021.5 - 0.0 - - - - - - -
04/04:00pm 11.4 SW 10 17 1021.5 - 0.0 - - - - - - -
04/03:30pm 12.6 SW 9 14 1021.3 - 0.0 - - - - - - -
04/03:00pm 13.0 SW 9 14 1021.4 - 0.0 - - - - - - -
04/02:30pm 13.0 WSW 10 19 1021.5 - 0.0 - - - - - - -
04/02:00pm 13.2 WSW 11 17 1021.6 - 0.0 - - - - - - -
04/01:30pm 13.1 WSW 10 15 1021.7 - 0.0 - - - - - - -
04/01:00pm 13.6 WSW 11 18 1021.7 - 0.0 - - - - - - -
04/12:30pm 13.6 SW 10 14 1021.9 - 0.0 - - - - - - -
04/12:00pm 13.5 WSW 10 17 1022.4 - 0.0 - - - - - - -
04/11:30am 12.3 WSW 12 19 1022.6 - 0.0 - - - - - - -
04/11:00am 12.1 W 8 16 1023.0 - 0.0 - - - - - - -
04/10:30am 10.6 W 8 14 1023.3 - 0.0 - - - - - - -
04/10:00am 10.6 W 8 15 1023.5 - 0.0 - - - - - - -
04/09:30am 9.8 W 8 14 1023.5 - 0.0 - - - - - - -
04/09:00am 10.6 W 8 13 1023.6 - 0.6 - - - - - - -
04/08:30am 10.9 W 7 13 1023.3 - 0.6 - - - - - - -
04/08:00am 10.8 W 7 11 1023.2 - 0.6 - - - - - - -
04/07:30am 10.3 W 5 7 1022.9 - 0.6 - - - - - - -
04/07:00am 9.7 WNW 5 8 1022.2 - 0.6 - - - - - - -
04/06:30am 9.4 WNW 5 7 1021.9 - 0.6 - - - - - - -
04/06:00am 9.1 WNW 4 6 1021.6 - 0.6 - - - - - - -
04/05:30am 9.5 W 4 7 1021.2 - 0.6 - - - - - - -
04/05:00am 10.2 WSW 4 5 1021.0 - 0.6 - - - - - - -
04/04:30am 10.6 W 4 5 1020.9 - 0.6 - - - - - - -
04/04:00am 12.2 S 8 11 1020.5 - 0.6 - - - - - - -
04/03:30am 12.3 S 7 13 1020.5 - 0.6 - - - - - - -
04/03:00am 12.4 SSW 6 10 1020.3 - 0.6 - - - - - - -
04/02:30am 12.7 S 10 13 1020.2 - 0.6 - - - - - - -
04/02:00am 12.8 S 7 11 1020.2 - 0.6 - - - - - - -
04/01:30am 12.8 S 6 13 1020.1 - 0.6 - - - - - - -
04/01:00am 12.7 SSW 4 8 1020.0 - 0.6 - - - - - - -
04/12:30am 12.8 SSW 7 13 1019.9 - 0.6 - - - - - - -
04/12:00am 13.0 S 10 16 1019.6 - 0.6 - - - - - - -
 
Date/Time
EST
Temp

°C
Wind Pressure Rain
since 9am
mm
Weather Cloud Vis
km
Sea
Height
m
Swell
Dir
 
Speed
knots
Gust
knots
hPa Trend Height
m
Period
s
Dir
03/11:30pm 13.1 S 10 18 1019.0 - 0.6 - - - - - - -
03/11:00pm 13.3 S 11 17 1018.7 - 0.6 - - - - - - -
03/10:30pm 13.3 S 12 20 1018.7 - 0.6 - - - - - - -
03/10:00pm 13.5 S 15 21 1018.5 - 0.6 - - - - - - -
03/09:30pm 13.5 S 18 24 1018.3 - 0.6 - - - - - - -
03/09:00pm 13.7 S 17 22 1017.9 - 0.6 - - - - - - -
03/08:30pm 13.8 S 17 23 1017.3 - 0.6 - - - - - - -
03/08:00pm 13.8 S 18 22 1016.8 - 0.6 - - - - - - -
03/07:30pm 13.9 S 18 23 1016.4 - 0.6 - - - - - - -
03/07:00pm 14.0 S 17 23 1015.9 - 0.6 - - - - - - -
03/06:30pm 14.1 S 19 26 1015.1 - 0.6 - - - - - - -
03/06:00pm 14.1 S 20 26 1014.2 - 0.6 - - - - - - -
03/05:30pm 13.9 S 21 31 1013.3 - 0.6 - - - - - - -
03/05:21pm 14.0 S 19 29 1013.1 - 0.6 - - - - - - -
03/05:00pm 14.3 S 17 24 1012.4 - 0.6 - - - - - - -
03/04:30pm 14.2 S 15 25 1011.8 - 0.6 - - - - - - -
03/04:24pm 14.2 S 15 25 1011.7 - 0.6 - - - - - - -
03/04:00pm 14.2 S 15 22 1011.1 - 0.6 - - - - - - -
03/03:30pm 14.0 SSW 12 18 1010.5 - 0.6 - - - - - - -
03/03:00pm 14.1 SSW 14 21 1010.1 - 0.4 - - - - - - -
03/02:30pm 15.9 SSW 13 21 1009.0 - 0.4 - - - - - - -
03/02:00pm 16.6 SW 9 15 1008.2 - 0.4 - - - - - - -
03/01:30pm 15.3 WSW 7 10 1008.0 - 0.4 - - - - - - -
03/01:00pm 14.2 WSW 7 11 1007.8 - 0.4 - - - - - - -
03/12:30pm 13.5 W 6 9 1007.7 - 0.4 - - - - - - -
03/12:00pm 12.6 WNW 7 11 1007.7 - 0.4 - - - - - - -
03/11:30am 11.7 NW 5 9 1008.0 - 0.4 - - - - - - -
03/11:00am 11.1 WNW 5 8 1007.9 - 0.4 - - - - - - -
03/10:30am 11.3 NW 4 7 1007.9 - 0.4 - - - - - - -
03/10:00am 11.2 NW 4 7 1007.9 - 0.4 - - - - - - -
03/09:30am 11.0 NW 5 6 1008.0 - 0.2 - - - - - - -
03/09:00am 11.0 NW 4 7 1007.5 - 0.4 - - - - - - -
03/08:30am 11.2 WSW 4 7 1007.1 - 0.4 - - - - - - -
03/08:00am 11.0 WSW 5 7 1006.6 - 0.4 - - - - - - -
03/07:30am 10.8 W 5 7 1006.2 - 0.4 - - - - - - -
03/07:00am 10.0 WNW 6 8 1006.0 - 0.4 - - - - - - -
03/06:30am 9.8 WNW 4 6 1005.1 - 0.4 - - - - - - -
03/06:00am 10.1 NW 5 7 1004.8 - 0.4 - - - - - - -
03/05:30am 10.2 NW 4 5 1004.7 - 0.4 - - - - - - -
03/05:00am 10.0 N 3 4 1004.8 - 0.4 - - - - - - -
03/04:30am 10.7 SSW 3 4 1004.7 - 0.4 - - - - - - -
03/04:00am 11.4 W 3 5 1004.7 - 0.4 - - - - - - -
03/03:30am 12.1 WNW 6 8 1004.6 - 0.4 - - - - - - -
03/03:00am 12.5 NNW 7 9 1004.9 - 0.4 - - - - - - -
03/02:30am 11.6 N 7 10 1005.3 - 0.4 - - - - - - -
03/02:00am 10.8 N 4 6 1005.6 - 0.4 - - - - - - -
03/01:30am 10.8 NW 2 6 1006.2 - 0.4 - - - - - - -
03/01:00am 11.3 NW 5 7 1006.3 - 0.4 - - - - - - -
03/12:30am 11.3 NNW 4 6 1006.5 - 0.4 - - - - - - -
03/12:00am 11.1 NNW 5 8 1006.9 - 0.4 - - - - - - -
 
Date/Time
EST
Temp

°C
Wind Pressure Rain
since 9am
mm
Weather Cloud Vis
km
Sea
Height
m
Swell
Dir
 
Speed
knots
Gust
knots
hPa Trend Height
m
Period
s
Dir
02/11:30pm 10.4 NW 4 5 1007.1 - 0.4 - - - - - - -
02/11:00pm 10.5 NW 5 7 1007.4 - 0.4 - - - - - - -
02/10:30pm 11.4 NW 5 7 1008.0 - 0.4 - - - - - - -
02/10:00pm 11.3 NW 4 6 1008.4 - 0.4 - - - - - - -
02/09:30pm 12.0 N 5 7 1008.6 - 0.4 - - - - - - -
02/09:00pm 12.1 N 6 8 1008.8 - 0.4 - - - - - - -
02/08:30pm 11.5 N 6 8 1008.9 - 0.4 - - - - - - -
02/08:00pm 11.3 N 5 6 1009.1 - 0.4 - - - - - - -
02/07:30pm 10.8 N 4 5 1009.1 - 0.4 - - - - - - -
02/07:00pm 11.3 N 4 5 1009.2 - 0.4 - - - - - - -
02/06:30pm 12.3 N 5 10 1009.4 - 0.4 - - - - - - -
02/06:00pm 11.9 N 5 7 1009.4 - 0.4 - - - - - - -
02/05:30pm 13.4 N 5 7 1009.3 - 0.0 - - - - - - -
02/05:00pm 14.9 NNE 9 13 1009.4 - 0.0 - - - - - - -
02/04:30pm 15.6 NNE 8 12 1009.7 - 0.0 - - - - - - -
02/04:00pm 16.0 NNE 11 14 1009.9 - 0.0 - - - - - - -

Other Formats:

Comma delimited format used in spreadsheet applications
http://www.bom.gov.au/fwo/IDV60701/IDV60701.94935.axf

JavaScript Object Notation format (JSON) in row-major order
http://www.bom.gov.au/fwo/IDV60701/IDV60701.94935.json